sensor_id;sensor_type;location;lat;lon;timestamp;P1;durP1;ratioP1;P2;durP2;ratioP2
13445;SDS011;6795;51.232;3.764;2024-01-07T00:00:13;4.30;;;3.90;;
13445;SDS011;6795;51.232;3.764;2024-01-07T00:02:45;5.40;;;4.47;;
13445;SDS011;6795;51.232;3.764;2024-01-07T00:05:14;4.90;;;4.40;;
13445;SDS011;6795;51.232;3.764;2024-01-07T00:07:43;4.37;;;3.97;;
13445;SDS011;6795;51.232;3.764;2024-01-07T00:10:11;3.93;;;3.63;;
13445;SDS011;6795;51.232;3.764;2024-01-07T00:12:40;3.83;;;3.43;;
13445;SDS011;6795;51.232;3.764;2024-01-07T00:15:09;6.23;;;3.70;;
13445;SDS011;6795;51.232;3.764;2024-01-07T00:17:38;3.50;;;3.20;;
13445;SDS011;6795;51.232;3.764;2024-01-07T00:20:08;3.50;;;3.20;;
13445;SDS011;6795;51.232;3.764;2024-01-07T00:22:38;3.87;;;3.57;;
13445;SDS011;6795;51.232;3.764;2024-01-07T00:25:07;3.67;;;3.37;;
13445;SDS011;6795;51.232;3.764;2024-01-07T00:27:35;7.63;;;3.47;;
13445;SDS011;6795;51.232;3.764;2024-01-07T00:30:04;4.03;;;3.63;;
13445;SDS011;6795;51.232;3.764;2024-01-07T00:32:33;6.70;;;3.90;;
13445;SDS011;6795;51.232;3.764;2024-01-07T00:35:02;3.70;;;2.97;;
13445;SDS011;6795;51.232;3.764;2024-01-07T00:37:32;3.37;;;3.07;;
13445;SDS011;6795;51.232;3.764;2024-01-07T00:40:02;2.97;;;2.77;;
13445;SDS011;6795;51.232;3.764;2024-01-07T00:42:31;4.07;;;3.40;;
13445;SDS011;6795;51.232;3.764;2024-01-07T00:45:00;4.53;;;3.23;;
13445;SDS011;6795;51.232;3.764;2024-01-07T00:47:29;2.70;;;2.50;;
13445;SDS011;6795;51.232;3.764;2024-01-07T00:49:58;3.30;;;2.40;;
13445;SDS011;6795;51.232;3.764;2024-01-07T00:52:26;4.13;;;2.60;;
13445;SDS011;6795;51.232;3.764;2024-01-07T00:54:56;1.93;;;1.70;;
13445;SDS011;6795;51.232;3.764;2024-01-07T00:57:25;3.40;;;2.10;;
13445;SDS011;6795;51.232;3.764;2024-01-07T00:59:54;3.97;;;2.53;;
13445;SDS011;6795;51.232;3.764;2024-01-07T01:02:22;2.77;;;2.57;;
13445;SDS011;6795;51.232;3.764;2024-01-07T01:04:51;3.90;;;2.70;;
13445;SDS011;6795;51.232;3.764;2024-01-07T01:07:19;3.20;;;2.43;;
13445;SDS011;6795;51.232;3.764;2024-01-07T01:09:48;4.70;;;3.27;;
13445;SDS011;6795;51.232;3.764;2024-01-07T01:12:18;3.70;;;3.30;;
13445;SDS011;6795;51.232;3.764;2024-01-07T01:14:47;3.80;;;3.00;;
13445;SDS011;6795;51.232;3.764;2024-01-07T01:17:15;4.50;;;3.50;;
13445;SDS011;6795;51.232;3.764;2024-01-07T01:19:44;5.63;;;3.27;;
13445;SDS011;6795;51.232;3.764;2024-01-07T01:22:12;4.10;;;3.53;;
13445;SDS011;6795;51.232;3.764;2024-01-07T01:24:41;5.20;;;4.20;;
13445;SDS011;6795;51.232;3.764;2024-01-07T01:27:12;5.87;;;4.60;;
13445;SDS011;6795;51.232;3.764;2024-01-07T01:29:43;5.97;;;5.37;;
13445;SDS011;6795;51.232;3.764;2024-01-07T01:32:11;4.93;;;4.53;;
13445;SDS011;6795;51.232;3.764;2024-01-07T01:34:40;6.97;;;4.73;;
13445;SDS011;6795;51.232;3.764;2024-01-07T01:37:09;4.63;;;4.20;;
13445;SDS011;6795;51.232;3.764;2024-01-07T01:39:39;4.97;;;4.57;;
13445;SDS011;6795;51.232;3.764;2024-01-07T01:42:07;5.40;;;5.00;;
13445;SDS011;6795;51.232;3.764;2024-01-07T01:44:36;5.27;;;4.77;;
13445;SDS011;6795;51.232;3.764;2024-01-07T01:47:06;5.97;;;5.37;;
13445;SDS011;6795;51.232;3.764;2024-01-07T01:49:35;6.67;;;5.37;;
13445;SDS011;6795;51.232;3.764;2024-01-07T01:52:05;6.57;;;5.97;;
13445;SDS011;6795;51.232;3.764;2024-01-07T01:54:33;5.43;;;4.97;;
13445;SDS011;6795;51.232;3.764;2024-01-07T01:57:02;6.33;;;5.73;;
13445;SDS011;6795;51.232;3.764;2024-01-07T01:59:31;6.30;;;5.80;;
13445;SDS011;6795;51.232;3.764;2024-01-07T02:02:00;6.67;;;6.07;;
13445;SDS011;6795;51.232;3.764;2024-01-07T02:04:30;6.53;;;6.03;;
13445;SDS011;6795;51.232;3.764;2024-01-07T02:06:59;5.53;;;5.10;;
13445;SDS011;6795;51.232;3.764;2024-01-07T02:09:28;6.43;;;5.80;;
13445;SDS011;6795;51.232;3.764;2024-01-07T02:12:00;6.10;;;5.57;;
13445;SDS011;6795;51.232;3.764;2024-01-07T02:14:29;6.53;;;5.93;;
13445;SDS011;6795;51.232;3.764;2024-01-07T02:16:57;6.83;;;6.23;;
13445;SDS011;6795;51.232;3.764;2024-01-07T02:19:26;8.30;;;7.60;;
13445;SDS011;6795;51.232;3.764;2024-01-07T02:21:56;10.53;;;9.53;;
13445;SDS011;6795;51.232;3.764;2024-01-07T02:24:26;11.90;;;10.40;;
13445;SDS011;6795;51.232;3.764;2024-01-07T02:26:56;10.70;;;9.70;;
13445;SDS011;6795;51.232;3.764;2024-01-07T02:29:28;11.03;;;10.03;;
13445;SDS011;6795;51.232;3.764;2024-01-07T02:31:57;11.60;;;10.50;;
13445;SDS011;6795;51.232;3.764;2024-01-07T02:34:25;13.43;;;12.03;;
13445;SDS011;6795;51.232;3.764;2024-01-07T02:36:54;13.43;;;12.13;;
13445;SDS011;6795;51.232;3.764;2024-01-07T02:39:23;13.37;;;12.07;;
13445;SDS011;6795;51.232;3.764;2024-01-07T02:41:53;15.50;;;14.00;;
13445;SDS011;6795;51.232;3.764;2024-01-07T02:44:21;16.60;;;15.00;;
13445;SDS011;6795;51.232;3.764;2024-01-07T02:46:50;16.00;;;14.50;;
13445;SDS011;6795;51.232;3.764;2024-01-07T02:49:18;16.13;;;14.40;;
13445;SDS011;6795;51.232;3.764;2024-01-07T02:51:47;15.20;;;13.70;;
13445;SDS011;6795;51.232;3.764;2024-01-07T02:54:16;15.20;;;13.70;;
13445;SDS011;6795;51.232;3.764;2024-01-07T02:56:45;15.00;;;13.60;;
13445;SDS011;6795;51.232;3.764;2024-01-07T02:59:15;13.73;;;12.33;;
13445;SDS011;6795;51.232;3.764;2024-01-07T03:01:43;12.93;;;11.63;;
13445;SDS011;6795;51.232;3.764;2024-01-07T03:04:14;15.63;;;14.10;;
13445;SDS011;6795;51.232;3.764;2024-01-07T03:06:43;15.40;;;14.00;;
13445;SDS011;6795;51.232;3.764;2024-01-07T03:09:12;16.23;;;14.77;;
13445;SDS011;6795;51.232;3.764;2024-01-07T03:11:41;16.43;;;14.93;;
13445;SDS011;6795;51.232;3.764;2024-01-07T03:14:09;15.30;;;13.90;;
13445;SDS011;6795;51.232;3.764;2024-01-07T03:16:40;16.13;;;14.53;;
13445;SDS011;6795;51.232;3.764;2024-01-07T03:19:08;15.10;;;13.77;;
13445;SDS011;6795;51.232;3.764;2024-01-07T03:21:37;14.33;;;13.03;;
13445;SDS011;6795;51.232;3.764;2024-01-07T03:24:06;15.07;;;13.77;;
13445;SDS011;6795;51.232;3.764;2024-01-07T03:26:35;14.17;;;12.87;;
13445;SDS011;6795;51.232;3.764;2024-01-07T03:29:04;14.80;;;13.43;;
13445;SDS011;6795;51.232;3.764;2024-01-07T03:31:32;15.93;;;14.50;;
13445;SDS011;6795;51.232;3.764;2024-01-07T03:34:02;17.63;;;15.93;;
13445;SDS011;6795;51.232;3.764;2024-01-07T03:36:31;16.33;;;14.93;;
13445;SDS011;6795;51.232;3.764;2024-01-07T03:39:00;16.47;;;14.93;;
13445;SDS011;6795;51.232;3.764;2024-01-07T03:41:28;16.87;;;15.17;;
13445;SDS011;6795;51.232;3.764;2024-01-07T03:43:57;16.37;;;14.87;;
13445;SDS011;6795;51.232;3.764;2024-01-07T03:46:26;16.93;;;15.33;;
13445;SDS011;6795;51.232;3.764;2024-01-07T03:48:54;17.17;;;15.57;;
13445;SDS011;6795;51.232;3.764;2024-01-07T03:51:25;17.50;;;15.77;;
13445;SDS011;6795;51.232;3.764;2024-01-07T03:53:53;16.43;;;14.87;;
13445;SDS011;6795;51.232;3.764;2024-01-07T03:56:22;17.50;;;15.80;;
13445;SDS011;6795;51.232;3.764;2024-01-07T03:58:51;16.83;;;15.30;;
13445;SDS011;6795;51.232;3.764;2024-01-07T04:01:19;14.73;;;13.43;;
13445;SDS011;6795;51.232;3.764;2024-01-07T04:03:48;14.37;;;12.97;;
13445;SDS011;6795;51.232;3.764;2024-01-07T04:06:17;14.03;;;12.73;;
13445;SDS011;6795;51.232;3.764;2024-01-07T04:08:47;15.43;;;14.03;;
13445;SDS011;6795;51.232;3.764;2024-01-07T04:11:18;13.90;;;12.70;;
13445;SDS011;6795;51.232;3.764;2024-01-07T04:13:46;13.50;;;12.40;;
13445;SDS011;6795;51.232;3.764;2024-01-07T04:16:15;13.10;;;12.00;;
13445;SDS011;6795;51.232;3.764;2024-01-07T04:18:44;13.20;;;12.10;;
13445;SDS011;6795;51.232;3.764;2024-01-07T04:21:19;14.00;;;12.80;;
13445;SDS011;6795;51.232;3.764;2024-01-07T04:23:49;12.43;;;11.33;;
13445;SDS011;6795;51.232;3.764;2024-01-07T04:26:18;13.07;;;11.87;;
13445;SDS011;6795;51.232;3.764;2024-01-07T04:28:47;12.37;;;11.27;;
13445;SDS011;6795;51.232;3.764;2024-01-07T04:31:15;12.07;;;10.97;;
13445;SDS011;6795;51.232;3.764;2024-01-07T04:33:44;11.80;;;10.80;;
13445;SDS011;6795;51.232;3.764;2024-01-07T04:36:13;14.40;;;13.20;;
13445;SDS011;6795;51.232;3.764;2024-01-07T04:38:42;12.40;;;11.40;;
13445;SDS011;6795;51.232;3.764;2024-01-07T04:41:12;13.00;;;11.90;;
13445;SDS011;6795;51.232;3.764;2024-01-07T04:43:42;12.77;;;11.67;;
13445;SDS011;6795;51.232;3.764;2024-01-07T04:46:11;11.87;;;10.87;;
13445;SDS011;6795;51.232;3.764;2024-01-07T04:48:39;11.87;;;10.87;;
13445;SDS011;6795;51.232;3.764;2024-01-07T04:51:08;11.37;;;10.37;;
13445;SDS011;6795;51.232;3.764;2024-01-07T04:53:37;11.77;;;10.77;;
13445;SDS011;6795;51.232;3.764;2024-01-07T04:56:06;11.90;;;10.77;;
13445;SDS011;6795;51.232;3.764;2024-01-07T04:58:36;11.30;;;10.40;;
13445;SDS011;6795;51.232;3.764;2024-01-07T05:01:04;12.17;;;11.07;;
13445;SDS011;6795;51.232;3.764;2024-01-07T05:03:34;11.10;;;10.20;;
13445;SDS011;6795;51.232;3.764;2024-01-07T05:06:04;10.63;;;9.73;;
13445;SDS011;6795;51.232;3.764;2024-01-07T05:08:33;11.63;;;10.63;;
13445;SDS011;6795;51.232;3.764;2024-01-07T05:11:02;10.57;;;9.67;;
13445;SDS011;6795;51.232;3.764;2024-01-07T05:13:31;10.00;;;9.20;;
13445;SDS011;6795;51.232;3.764;2024-01-07T05:16:01;9.77;;;8.97;;
13445;SDS011;6795;51.232;3.764;2024-01-07T05:18:30;9.90;;;9.00;;
13445;SDS011;6795;51.232;3.764;2024-01-07T05:20:59;10.33;;;9.43;;
13445;SDS011;6795;51.232;3.764;2024-01-07T05:23:28;11.03;;;10.13;;
13445;SDS011;6795;51.232;3.764;2024-01-07T05:25:56;8.87;;;8.17;;
13445;SDS011;6795;51.232;3.764;2024-01-07T05:28:27;9.60;;;8.83;;
13445;SDS011;6795;51.232;3.764;2024-01-07T05:30:56;9.10;;;8.30;;
13445;SDS011;6795;51.232;3.764;2024-01-07T05:33:26;9.20;;;8.47;;
13445;SDS011;6795;51.232;3.764;2024-01-07T05:35:55;8.73;;;7.93;;
13445;SDS011;6795;51.232;3.764;2024-01-07T05:38:24;9.03;;;8.23;;
13445;SDS011;6795;51.232;3.764;2024-01-07T05:40:56;9.87;;;9.07;;
13445;SDS011;6795;51.232;3.764;2024-01-07T05:43:25;9.47;;;8.67;;
13445;SDS011;6795;51.232;3.764;2024-01-07T05:45:54;9.83;;;8.93;;
13445;SDS011;6795;51.232;3.764;2024-01-07T05:48:22;9.80;;;8.97;;
13445;SDS011;6795;51.232;3.764;2024-01-07T05:50:52;9.60;;;8.80;;
13445;SDS011;6795;51.232;3.764;2024-01-07T05:53:21;10.17;;;9.37;;
13445;SDS011;6795;51.232;3.764;2024-01-07T05:55:50;10.33;;;9.53;;
13445;SDS011;6795;51.232;3.764;2024-01-07T05:58:18;10.73;;;9.77;;
13445;SDS011;6795;51.232;3.764;2024-01-07T06:00:47;11.27;;;10.17;;
13445;SDS011;6795;51.232;3.764;2024-01-07T06:03:16;11.40;;;10.40;;
13445;SDS011;6795;51.232;3.764;2024-01-07T06:05:45;11.20;;;10.23;;
13445;SDS011;6795;51.232;3.764;2024-01-07T06:08:15;11.40;;;10.43;;
13445;SDS011;6795;51.232;3.764;2024-01-07T06:10:43;11.40;;;10.40;;
13445;SDS011;6795;51.232;3.764;2024-01-07T06:13:13;12.07;;;11.00;;
13445;SDS011;6795;51.232;3.764;2024-01-07T06:15:41;12.00;;;10.90;;
13445;SDS011;6795;51.232;3.764;2024-01-07T06:18:10;12.10;;;11.00;;
13445;SDS011;6795;51.232;3.764;2024-01-07T06:20:39;11.60;;;10.60;;
13445;SDS011;6795;51.232;3.764;2024-01-07T06:23:08;12.13;;;11.03;;
13445;SDS011;6795;51.232;3.764;2024-01-07T06:25:37;12.63;;;11.43;;
13445;SDS011;6795;51.232;3.764;2024-01-07T06:28:06;12.70;;;11.50;;
13445;SDS011;6795;51.232;3.764;2024-01-07T06:30:37;12.17;;;11.00;;
13445;SDS011;6795;51.232;3.764;2024-01-07T06:33:05;12.50;;;11.40;;
13445;SDS011;6795;51.232;3.764;2024-01-07T06:35:34;12.67;;;11.57;;
13445;SDS011;6795;51.232;3.764;2024-01-07T06:38:03;13.17;;;11.87;;
13445;SDS011;6795;51.232;3.764;2024-01-07T06:40:31;13.47;;;12.27;;
13445;SDS011;6795;51.232;3.764;2024-01-07T06:43:01;13.30;;;12.00;;
13445;SDS011;6795;51.232;3.764;2024-01-07T06:45:30;14.17;;;12.80;;
13445;SDS011;6795;51.232;3.764;2024-01-07T06:47:59;14.13;;;12.73;;
13445;SDS011;6795;51.232;3.764;2024-01-07T06:50:28;15.17;;;13.77;;
13445;SDS011;6795;51.232;3.764;2024-01-07T06:52:57;14.23;;;12.87;;
13445;SDS011;6795;51.232;3.764;2024-01-07T06:55:25;15.53;;;14.03;;
13445;SDS011;6795;51.232;3.764;2024-01-07T06:57:54;15.80;;;14.40;;
13445;SDS011;6795;51.232;3.764;2024-01-07T07:00:24;15.43;;;13.93;;
13445;SDS011;6795;51.232;3.764;2024-01-07T07:02:53;16.47;;;14.87;;
13445;SDS011;6795;51.232;3.764;2024-01-07T07:05:21;16.20;;;14.60;;
13445;SDS011;6795;51.232;3.764;2024-01-07T07:07:50;16.57;;;14.87;;
13445;SDS011;6795;51.232;3.764;2024-01-07T07:10:21;16.40;;;14.80;;
13445;SDS011;6795;51.232;3.764;2024-01-07T07:12:50;16.90;;;15.20;;
13445;SDS011;6795;51.232;3.764;2024-01-07T07:15:18;17.63;;;15.83;;
13445;SDS011;6795;51.232;3.764;2024-01-07T07:17:48;17.30;;;15.60;;
13445;SDS011;6795;51.232;3.764;2024-01-07T07:20:17;17.73;;;15.93;;
13445;SDS011;6795;51.232;3.764;2024-01-07T07:22:46;21.10;;;17.47;;
13445;SDS011;6795;51.232;3.764;2024-01-07T07:25:14;18.70;;;16.70;;
13445;SDS011;6795;51.232;3.764;2024-01-07T07:27:43;20.37;;;18.20;;
13445;SDS011;6795;51.232;3.764;2024-01-07T07:30:12;22.13;;;18.63;;
13445;SDS011;6795;51.232;3.764;2024-01-07T07:32:41;21.47;;;19.30;;
13445;SDS011;6795;51.232;3.764;2024-01-07T07:35:12;21.03;;;18.83;;
13445;SDS011;6795;51.232;3.764;2024-01-07T07:37:40;20.77;;;18.67;;
13445;SDS011;6795;51.232;3.764;2024-01-07T07:40:09;21.47;;;19.00;;
13445;SDS011;6795;51.232;3.764;2024-01-07T07:42:39;20.37;;;18.17;;
13445;SDS011;6795;51.232;3.764;2024-01-07T07:45:08;21.63;;;19.33;;
13445;SDS011;6795;51.232;3.764;2024-01-07T07:47:37;24.40;;;20.47;;
13445;SDS011;6795;51.232;3.764;2024-01-07T07:50:08;22.17;;;19.77;;
13445;SDS011;6795;51.232;3.764;2024-01-07T07:52:38;20.67;;;18.47;;
13445;SDS011;6795;51.232;3.764;2024-01-07T07:55:07;21.90;;;19.13;;
13445;SDS011;6795;51.232;3.764;2024-01-07T07:57:36;21.17;;;18.80;;
13445;SDS011;6795;51.232;3.764;2024-01-07T08:00:06;21.47;;;19.23;;
13445;SDS011;6795;51.232;3.764;2024-01-07T08:02:39;22.43;;;20.03;;
13445;SDS011;6795;51.232;3.764;2024-01-07T08:05:08;23.00;;;19.77;;
13445;SDS011;6795;51.232;3.764;2024-01-07T08:07:37;21.83;;;18.63;;
13445;SDS011;6795;51.232;3.764;2024-01-07T08:10:07;21.70;;;19.40;;
13445;SDS011;6795;51.232;3.764;2024-01-07T08:12:36;22.80;;;20.33;;
13445;SDS011;6795;51.232;3.764;2024-01-07T08:15:05;27.50;;;21.27;;
13445;SDS011;6795;51.232;3.764;2024-01-07T08:17:34;22.50;;;19.70;;
13445;SDS011;6795;51.232;3.764;2024-01-07T08:20:03;23.50;;;21.10;;
13445;SDS011;6795;51.232;3.764;2024-01-07T08:22:32;22.60;;;20.20;;
13445;SDS011;6795;51.232;3.764;2024-01-07T08:25:00;24.63;;;20.67;;
13445;SDS011;6795;51.232;3.764;2024-01-07T08:27:31;22.67;;;19.30;;
13445;SDS011;6795;51.232;3.764;2024-01-07T08:30:00;21.60;;;18.97;;
13445;SDS011;6795;51.232;3.764;2024-01-07T08:32:29;22.43;;;20.00;;
13445;SDS011;6795;51.232;3.764;2024-01-07T08:34:58;22.70;;;20.30;;
13445;SDS011;6795;51.232;3.764;2024-01-07T08:37:26;22.67;;;20.03;;
13445;SDS011;6795;51.232;3.764;2024-01-07T08:39:55;22.63;;;20.23;;
13445;SDS011;6795;51.232;3.764;2024-01-07T08:42:24;23.80;;;20.77;;
13445;SDS011;6795;51.232;3.764;2024-01-07T08:44:57;22.00;;;19.53;;
13445;SDS011;6795;51.232;3.764;2024-01-07T08:47:27;22.43;;;19.70;;
13445;SDS011;6795;51.232;3.764;2024-01-07T08:50:00;22.67;;;19.80;;
13445;SDS011;6795;51.232;3.764;2024-01-07T08:52:29;23.47;;;20.97;;
13445;SDS011;6795;51.232;3.764;2024-01-07T08:55:01;23.03;;;20.63;;
13445;SDS011;6795;51.232;3.764;2024-01-07T08:57:32;24.77;;;20.30;;
13445;SDS011;6795;51.232;3.764;2024-01-07T09:00:02;23.53;;;20.37;;
13445;SDS011;6795;51.232;3.764;2024-01-07T09:02:34;26.27;;;21.30;;
13445;SDS011;6795;51.232;3.764;2024-01-07T09:05:08;24.43;;;20.03;;
13445;SDS011;6795;51.232;3.764;2024-01-07T09:07:37;23.07;;;19.60;;
13445;SDS011;6795;51.232;3.764;2024-01-07T09:10:06;23.47;;;19.33;;
13445;SDS011;6795;51.232;3.764;2024-01-07T09:12:38;23.00;;;20.37;;
13445;SDS011;6795;51.232;3.764;2024-01-07T09:15:08;26.00;;;22.27;;
13445;SDS011;6795;51.232;3.764;2024-01-07T09:17:37;23.53;;;21.03;;
13445;SDS011;6795;51.232;3.764;2024-01-07T09:20:07;20.23;;;17.87;;
13445;SDS011;6795;51.232;3.764;2024-01-07T09:22:36;24.03;;;20.60;;
13445;SDS011;6795;51.232;3.764;2024-01-07T09:25:05;23.27;;;20.30;;
13445;SDS011;6795;51.232;3.764;2024-01-07T09:27:34;22.13;;;19.83;;
13445;SDS011;6795;51.232;3.764;2024-01-07T09:30:03;24.00;;;20.50;;
13445;SDS011;6795;51.232;3.764;2024-01-07T09:32:33;22.50;;;20.10;;
13445;SDS011;6795;51.232;3.764;2024-01-07T09:35:04;19.30;;;17.27;;
13445;SDS011;6795;51.232;3.764;2024-01-07T09:37:33;20.23;;;18.23;;
13445;SDS011;6795;51.232;3.764;2024-01-07T09:40:02;18.60;;;16.77;;
13445;SDS011;6795;51.232;3.764;2024-01-07T09:42:32;18.77;;;16.93;;
13445;SDS011;6795;51.232;3.764;2024-01-07T09:45:01;19.23;;;17.43;;
13445;SDS011;6795;51.232;3.764;2024-01-07T09:47:31;19.60;;;17.60;;
13445;SDS011;6795;51.232;3.764;2024-01-07T09:50:01;18.37;;;16.57;;
13445;SDS011;6795;51.232;3.764;2024-01-07T09:52:31;19.73;;;17.73;;
13445;SDS011;6795;51.232;3.764;2024-01-07T09:55:02;18.67;;;16.53;;
13445;SDS011;6795;51.232;3.764;2024-01-07T09:57:31;19.07;;;17.17;;
13445;SDS011;6795;51.232;3.764;2024-01-07T10:00:01;18.20;;;16.30;;
13445;SDS011;6795;51.232;3.764;2024-01-07T10:02:31;19.23;;;17.33;;
13445;SDS011;6795;51.232;3.764;2024-01-07T10:04:59;19.67;;;17.77;;
13445;SDS011;6795;51.232;3.764;2024-01-07T10:07:29;18.93;;;16.93;;
13445;SDS011;6795;51.232;3.764;2024-01-07T10:09:57;19.73;;;17.73;;
13445;SDS011;6795;51.232;3.764;2024-01-07T10:12:25;20.17;;;18.17;;
13445;SDS011;6795;51.232;3.764;2024-01-07T10:14:54;20.37;;;17.63;;
13445;SDS011;6795;51.232;3.764;2024-01-07T10:17:22;19.23;;;17.30;;
13445;SDS011;6795;51.232;3.764;2024-01-07T10:19:55;19.83;;;17.90;;
13445;SDS011;6795;51.232;3.764;2024-01-07T10:22:24;21.40;;;19.20;;
13445;SDS011;6795;51.232;3.764;2024-01-07T10:24:55;21.43;;;18.67;;
13445;SDS011;6795;51.232;3.764;2024-01-07T10:27:24;21.27;;;19.17;;
13445;SDS011;6795;51.232;3.764;2024-01-07T10:29:53;20.73;;;18.50;;
13445;SDS011;6795;51.232;3.764;2024-01-07T10:32:22;21.37;;;19.17;;
13445;SDS011;6795;51.232;3.764;2024-01-07T10:34:50;19.33;;;17.40;;
13445;SDS011;6795;51.232;3.764;2024-01-07T10:37:21;20.07;;;17.97;;
13445;SDS011;6795;51.232;3.764;2024-01-07T10:39:50;20.80;;;18.67;;
13445;SDS011;6795;51.232;3.764;2024-01-07T10:42:20;19.80;;;17.80;;
13445;SDS011;6795;51.232;3.764;2024-01-07T10:44:49;22.70;;;20.30;;
13445;SDS011;6795;51.232;3.764;2024-01-07T10:47:18;24.53;;;21.93;;
13445;SDS011;6795;51.232;3.764;2024-01-07T10:49:48;21.83;;;19.47;;
13445;SDS011;6795;51.232;3.764;2024-01-07T10:52:20;20.80;;;18.27;;
13445;SDS011;6795;51.232;3.764;2024-01-07T10:54:50;24.33;;;21.53;;
13445;SDS011;6795;51.232;3.764;2024-01-07T10:57:21;22.00;;;19.73;;
13445;SDS011;6795;51.232;3.764;2024-01-07T10:59:52;22.30;;;18.63;;
13445;SDS011;6795;51.232;3.764;2024-01-07T11:02:22;20.10;;;17.67;;
13445;SDS011;6795;51.232;3.764;2024-01-07T11:04:51;17.37;;;15.57;;
13445;SDS011;6795;51.232;3.764;2024-01-07T11:07:23;18.23;;;16.30;;
13445;SDS011;6795;51.232;3.764;2024-01-07T11:10:02;20.70;;;18.67;;
13445;SDS011;6795;51.232;3.764;2024-01-07T11:12:34;19.87;;;17.77;;
13445;SDS011;6795;51.232;3.764;2024-01-07T11:15:03;20.43;;;18.37;;
13445;SDS011;6795;51.232;3.764;2024-01-07T11:17:41;20.67;;;18.57;;
13445;SDS011;6795;51.232;3.764;2024-01-07T11:20:17;20.00;;;17.93;;
13445;SDS011;6795;51.232;3.764;2024-01-07T11:22:47;20.13;;;18.10;;
13445;SDS011;6795;51.232;3.764;2024-01-07T11:25:28;22.60;;;20.40;;
13445;SDS011;6795;51.232;3.764;2024-01-07T11:28:00;21.53;;;19.23;;
13445;SDS011;6795;51.232;3.764;2024-01-07T11:30:29;20.27;;;18.20;;
13445;SDS011;6795;51.232;3.764;2024-01-07T11:33:05;20.20;;;18.20;;
13445;SDS011;6795;51.232;3.764;2024-01-07T11:38:24;19.73;;;17.80;;
13445;SDS011;6795;51.232;3.764;2024-01-07T11:40:53;19.63;;;17.73;;
13445;SDS011;6795;51.232;3.764;2024-01-07T11:43:24;19.50;;;17.33;;
13445;SDS011;6795;51.232;3.764;2024-01-07T11:45:53;19.27;;;17.27;;
13445;SDS011;6795;51.232;3.764;2024-01-07T11:48:22;18.43;;;16.53;;
13445;SDS011;6795;51.232;3.764;2024-01-07T11:50:50;18.60;;;16.80;;
13445;SDS011;6795;51.232;3.764;2024-01-07T11:53:22;20.80;;;18.80;;
13445;SDS011;6795;51.232;3.764;2024-01-07T11:55:50;19.63;;;17.83;;
13445;SDS011;6795;51.232;3.764;2024-01-07T11:58:19;22.07;;;19.87;;
13445;SDS011;6795;51.232;3.764;2024-01-07T12:00:49;23.33;;;20.90;;
13445;SDS011;6795;51.232;3.764;2024-01-07T12:03:18;22.87;;;20.47;;
13445;SDS011;6795;51.232;3.764;2024-01-07T12:05:46;20.70;;;18.53;;
13445;SDS011;6795;51.232;3.764;2024-01-07T12:08:15;19.57;;;17.60;;
13445;SDS011;6795;51.232;3.764;2024-01-07T12:10:44;20.53;;;18.37;;
13445;SDS011;6795;51.232;3.764;2024-01-07T12:13:13;20.63;;;18.50;;
13445;SDS011;6795;51.232;3.764;2024-01-07T12:15:42;21.10;;;19.00;;
13445;SDS011;6795;51.232;3.764;2024-01-07T12:18:12;21.77;;;18.73;;
13445;SDS011;6795;51.232;3.764;2024-01-07T12:20:42;21.07;;;18.80;;
13445;SDS011;6795;51.232;3.764;2024-01-07T12:23:21;22.07;;;19.77;;
13445;SDS011;6795;51.232;3.764;2024-01-07T12:25:50;21.30;;;19.00;;
13445;SDS011;6795;51.232;3.764;2024-01-07T12:28:18;20.00;;;18.00;;
13445;SDS011;6795;51.232;3.764;2024-01-07T12:30:47;19.73;;;17.93;;
13445;SDS011;6795;51.232;3.764;2024-01-07T12:33:18;19.30;;;17.47;;
13445;SDS011;6795;51.232;3.764;2024-01-07T12:35:47;19.60;;;17.53;;
13445;SDS011;6795;51.232;3.764;2024-01-07T12:38:15;20.30;;;18.20;;
13445;SDS011;6795;51.232;3.764;2024-01-07T12:40:50;20.43;;;18.33;;
13445;SDS011;6795;51.232;3.764;2024-01-07T12:43:18;21.10;;;18.97;;
13445;SDS011;6795;51.232;3.764;2024-01-07T12:45:47;18.70;;;16.93;;
13445;SDS011;6795;51.232;3.764;2024-01-07T12:48:16;19.10;;;17.20;;
13445;SDS011;6795;51.232;3.764;2024-01-07T12:50:46;17.37;;;15.77;;
13445;SDS011;6795;51.232;3.764;2024-01-07T12:53:14;15.97;;;14.57;;
13445;SDS011;6795;51.232;3.764;2024-01-07T12:55:43;16.90;;;15.40;;
13445;SDS011;6795;51.232;3.764;2024-01-07T12:58:11;15.77;;;14.27;;
13445;SDS011;6795;51.232;3.764;2024-01-07T13:00:40;16.57;;;15.07;;
13445;SDS011;6795;51.232;3.764;2024-01-07T13:03:08;16.23;;;14.73;;
13445;SDS011;6795;51.232;3.764;2024-01-07T13:05:41;16.13;;;14.63;;
13445;SDS011;6795;51.232;3.764;2024-01-07T13:08:11;16.63;;;15.20;;
13445;SDS011;6795;51.232;3.764;2024-01-07T13:10:40;15.87;;;14.47;;
13445;SDS011;6795;51.232;3.764;2024-01-07T13:13:08;13.03;;;11.83;;
13445;SDS011;6795;51.232;3.764;2024-01-07T13:15:41;14.20;;;12.80;;
13445;SDS011;6795;51.232;3.764;2024-01-07T13:18:10;14.23;;;12.93;;
13445;SDS011;6795;51.232;3.764;2024-01-07T13:20:39;13.57;;;12.47;;
13445;SDS011;6795;51.232;3.764;2024-01-07T13:23:08;14.73;;;13.33;;
13445;SDS011;6795;51.232;3.764;2024-01-07T13:25:37;13.97;;;12.57;;
13445;SDS011;6795;51.232;3.764;2024-01-07T13:28:06;14.77;;;13.47;;
13445;SDS011;6795;51.232;3.764;2024-01-07T13:30:38;14.00;;;12.70;;
13445;SDS011;6795;51.232;3.764;2024-01-07T13:33:07;13.17;;;11.87;;
13445;SDS011;6795;51.232;3.764;2024-01-07T13:35:36;14.83;;;13.47;;
13445;SDS011;6795;51.232;3.764;2024-01-07T13:38:04;16.50;;;14.90;;
13445;SDS011;6795;51.232;3.764;2024-01-07T13:40:32;16.60;;;15.00;;
13445;SDS011;6795;51.232;3.764;2024-01-07T13:43:02;14.37;;;13.03;;
13445;SDS011;6795;51.232;3.764;2024-01-07T13:45:31;14.93;;;13.60;;
13445;SDS011;6795;51.232;3.764;2024-01-07T13:47:59;15.60;;;14.10;;
13445;SDS011;6795;51.232;3.764;2024-01-07T13:50:28;13.53;;;12.43;;
13445;SDS011;6795;51.232;3.764;2024-01-07T13:52:56;15.47;;;14.00;;
13445;SDS011;6795;51.232;3.764;2024-01-07T13:55:25;17.27;;;15.50;;
13445;SDS011;6795;51.232;3.764;2024-01-07T13:57:53;19.40;;;16.43;;
13445;SDS011;6795;51.232;3.764;2024-01-07T14:00:23;17.70;;;15.93;;
13445;SDS011;6795;51.232;3.764;2024-01-07T14:02:52;17.57;;;15.77;;
13445;SDS011;6795;51.232;3.764;2024-01-07T14:05:20;15.73;;;14.13;;
13445;SDS011;6795;51.232;3.764;2024-01-07T14:07:49;15.87;;;14.17;;
13445;SDS011;6795;51.232;3.764;2024-01-07T14:10:18;16.43;;;14.40;;
13445;SDS011;6795;51.232;3.764;2024-01-07T14:12:47;15.67;;;14.07;;
13445;SDS011;6795;51.232;3.764;2024-01-07T14:15:15;13.63;;;12.00;;
13445;SDS011;6795;51.232;3.764;2024-01-07T14:17:46;15.20;;;13.60;;
13445;SDS011;6795;51.232;3.764;2024-01-07T14:20:16;14.87;;;13.47;;
13445;SDS011;6795;51.232;3.764;2024-01-07T14:22:44;14.77;;;13.27;;
13445;SDS011;6795;51.232;3.764;2024-01-07T14:25:13;14.47;;;12.90;;
13445;SDS011;6795;51.232;3.764;2024-01-07T14:27:42;14.57;;;13.03;;
13445;SDS011;6795;51.232;3.764;2024-01-07T14:30:11;14.60;;;13.10;;
13445;SDS011;6795;51.232;3.764;2024-01-07T14:32:40;16.53;;;14.27;;
13445;SDS011;6795;51.232;3.764;2024-01-07T14:35:12;14.03;;;12.73;;
13445;SDS011;6795;51.232;3.764;2024-01-07T14:37:40;14.93;;;13.43;;
13445;SDS011;6795;51.232;3.764;2024-01-07T14:40:09;14.43;;;12.93;;
13445;SDS011;6795;51.232;3.764;2024-01-07T14:42:38;14.53;;;13.13;;
13445;SDS011;6795;51.232;3.764;2024-01-07T14:45:07;15.97;;;14.37;;
13445;SDS011;6795;51.232;3.764;2024-01-07T14:47:35;15.43;;;13.83;;
13445;SDS011;6795;51.232;3.764;2024-01-07T14:50:05;13.37;;;12.17;;
13445;SDS011;6795;51.232;3.764;2024-01-07T14:52:36;12.53;;;11.37;;
13445;SDS011;6795;51.232;3.764;2024-01-07T14:55:05;13.43;;;12.10;;